sensor_id;sensor_type;location;lat;lon;timestamp;P1;durP1;ratioP1;P2;durP2;ratioP2
8474;SDS011;4274;52.012;8.448;2023-11-19T00:02:11;46.50;;;7.13;;
8474;SDS011;4274;52.012;8.448;2023-11-19T00:04:37;46.10;;;7.00;;
8474;SDS011;4274;52.012;8.448;2023-11-19T00:07:06;43.90;;;6.83;;
8474;SDS011;4274;52.012;8.448;2023-11-19T00:09:36;43.23;;;6.10;;
8474;SDS011;4274;52.012;8.448;2023-11-19T00:12:06;42.20;;;5.73;;
8474;SDS011;4274;52.012;8.448;2023-11-19T00:14:32;45.07;;;6.70;;
8474;SDS011;4274;52.012;8.448;2023-11-19T00:16:59;45.50;;;6.50;;
8474;SDS011;4274;52.012;8.448;2023-11-19T00:19:25;46.40;;;5.93;;
8474;SDS011;4274;52.012;8.448;2023-11-19T00:21:51;43.20;;;5.67;;
8474;SDS011;4274;52.012;8.448;2023-11-19T00:24:17;41.77;;;4.97;;
8474;SDS011;4274;52.012;8.448;2023-11-19T00:26:43;44.20;;;5.20;;
8474;SDS011;4274;52.012;8.448;2023-11-19T00:29:08;42.57;;;5.40;;
8474;SDS011;4274;52.012;8.448;2023-11-19T00:31:34;42.40;;;5.40;;
8474;SDS011;4274;52.012;8.448;2023-11-19T00:34:00;46.30;;;5.03;;
8474;SDS011;4274;52.012;8.448;2023-11-19T00:36:26;41.40;;;5.30;;
8474;SDS011;4274;52.012;8.448;2023-11-19T00:38:53;41.17;;;5.33;;
8474;SDS011;4274;52.012;8.448;2023-11-19T00:41:18;40.60;;;5.30;;
8474;SDS011;4274;52.012;8.448;2023-11-19T00:43:44;40.60;;;5.20;;
8474;SDS011;4274;52.012;8.448;2023-11-19T00:46:09;40.43;;;5.10;;
8474;SDS011;4274;52.012;8.448;2023-11-19T00:48:41;42.60;;;5.17;;
8474;SDS011;4274;52.012;8.448;2023-11-19T00:51:07;41.10;;;5.57;;
8474;SDS011;4274;52.012;8.448;2023-11-19T00:53:32;45.77;;;5.80;;
8474;SDS011;4274;52.012;8.448;2023-11-19T00:55:59;42.13;;;5.90;;
8474;SDS011;4274;52.012;8.448;2023-11-19T00:58:24;41.60;;;5.03;;
8474;SDS011;4274;52.012;8.448;2023-11-19T01:00:50;41.20;;;5.50;;
8474;SDS011;4274;52.012;8.448;2023-11-19T01:03:16;43.53;;;5.63;;
8474;SDS011;4274;52.012;8.448;2023-11-19T01:05:41;41.20;;;5.57;;
8474;SDS011;4274;52.012;8.448;2023-11-19T01:08:07;44.77;;;5.73;;
8474;SDS011;4274;52.012;8.448;2023-11-19T01:10:33;41.47;;;5.23;;
8474;SDS011;4274;52.012;8.448;2023-11-19T01:12:59;42.57;;;5.47;;
8474;SDS011;4274;52.012;8.448;2023-11-19T01:15:25;41.97;;;5.60;;
8474;SDS011;4274;52.012;8.448;2023-11-19T01:17:51;41.07;;;5.60;;
8474;SDS011;4274;52.012;8.448;2023-11-19T01:20:16;40.50;;;4.87;;
8474;SDS011;4274;52.012;8.448;2023-11-19T01:22:42;43.07;;;5.70;;
8474;SDS011;4274;52.012;8.448;2023-11-19T01:25:08;41.50;;;5.73;;
8474;SDS011;4274;52.012;8.448;2023-11-19T01:27:34;41.77;;;6.33;;
8474;SDS011;4274;52.012;8.448;2023-11-19T01:30:00;41.17;;;5.60;;
8474;SDS011;4274;52.012;8.448;2023-11-19T01:32:28;45.80;;;6.50;;
8474;SDS011;4274;52.012;8.448;2023-11-19T01:34:54;42.97;;;6.77;;
8474;SDS011;4274;52.012;8.448;2023-11-19T01:37:20;42.20;;;6.43;;
8474;SDS011;4274;52.012;8.448;2023-11-19T01:39:45;43.83;;;6.90;;
8474;SDS011;4274;52.012;8.448;2023-11-19T01:42:11;44.10;;;7.00;;
8474;SDS011;4274;52.012;8.448;2023-11-19T01:44:40;43.80;;;7.13;;
8474;SDS011;4274;52.012;8.448;2023-11-19T01:47:06;43.73;;;7.13;;
8474;SDS011;4274;52.012;8.448;2023-11-19T01:49:32;43.80;;;6.97;;
8474;SDS011;4274;52.012;8.448;2023-11-19T01:51:58;44.50;;;7.40;;
8474;SDS011;4274;52.012;8.448;2023-11-19T01:54:24;45.53;;;7.67;;
8474;SDS011;4274;52.012;8.448;2023-11-19T01:56:50;44.63;;;7.47;;
8474;SDS011;4274;52.012;8.448;2023-11-19T01:59:18;46.93;;;8.00;;
8474;SDS011;4274;52.012;8.448;2023-11-19T02:01:51;44.17;;;7.07;;
8474;SDS011;4274;52.012;8.448;2023-11-19T02:04:17;47.70;;;8.13;;
8474;SDS011;4274;52.012;8.448;2023-11-19T02:06:43;45.33;;;7.27;;
8474;SDS011;4274;52.012;8.448;2023-11-19T02:09:11;46.50;;;7.93;;
8474;SDS011;4274;52.012;8.448;2023-11-19T02:11:39;46.50;;;8.17;;
8474;SDS011;4274;52.012;8.448;2023-11-19T02:14:05;44.87;;;7.90;;
8474;SDS011;4274;52.012;8.448;2023-11-19T02:16:31;50.93;;;8.10;;
8474;SDS011;4274;52.012;8.448;2023-11-19T02:18:57;46.93;;;7.87;;
8474;SDS011;4274;52.012;8.448;2023-11-19T02:21:23;43.97;;;7.53;;
8474;SDS011;4274;52.012;8.448;2023-11-19T02:23:48;48.30;;;7.17;;
8474;SDS011;4274;52.012;8.448;2023-11-19T02:29:04;47.00;;;9.60;;
8474;SDS011;4274;52.012;8.448;2023-11-19T02:31:31;46.60;;;9.30;;
8474;SDS011;4274;52.012;8.448;2023-11-19T02:33:57;48.87;;;9.60;;
8474;SDS011;4274;52.012;8.448;2023-11-19T02:36:25;58.20;;;9.80;;
8474;SDS011;4274;52.012;8.448;2023-11-19T02:38:50;48.73;;;9.53;;
8474;SDS011;4274;52.012;8.448;2023-11-19T02:41:16;48.17;;;9.03;;
8474;SDS011;4274;52.012;8.448;2023-11-19T02:43:41;58.53;;;9.70;;
8474;SDS011;4274;52.012;8.448;2023-11-19T02:46:07;49.33;;;9.23;;
8474;SDS011;4274;52.012;8.448;2023-11-19T02:48:33;50.30;;;9.90;;
8474;SDS011;4274;52.012;8.448;2023-11-19T02:51:02;49.77;;;10.33;;
8474;SDS011;4274;52.012;8.448;2023-11-19T02:53:34;50.80;;;11.00;;
8474;SDS011;4274;52.012;8.448;2023-11-19T02:56:00;57.37;;;11.83;;
8474;SDS011;4274;52.012;8.448;2023-11-19T02:58:36;54.57;;;11.07;;
8474;SDS011;4274;52.012;8.448;2023-11-19T03:01:03;51.40;;;10.77;;
8474;SDS011;4274;52.012;8.448;2023-11-19T03:03:37;53.97;;;12.90;;
8474;SDS011;4274;52.012;8.448;2023-11-19T03:06:05;55.87;;;12.83;;
8474;SDS011;4274;52.012;8.448;2023-11-19T03:08:31;54.50;;;12.70;;
8474;SDS011;4274;52.012;8.448;2023-11-19T03:10:58;54.00;;;11.83;;
8474;SDS011;4274;52.012;8.448;2023-11-19T03:13:24;53.27;;;13.17;;
8474;SDS011;4274;52.012;8.448;2023-11-19T03:15:49;59.10;;;14.40;;
8474;SDS011;4274;52.012;8.448;2023-11-19T03:18:16;56.43;;;14.50;;
8474;SDS011;4274;52.012;8.448;2023-11-19T03:20:42;58.53;;;14.07;;
8474;SDS011;4274;52.012;8.448;2023-11-19T03:23:07;64.67;;;14.70;;
8474;SDS011;4274;52.012;8.448;2023-11-19T03:25:33;66.70;;;14.87;;
8474;SDS011;4274;52.012;8.448;2023-11-19T03:27:59;65.60;;;16.90;;
8474;SDS011;4274;52.012;8.448;2023-11-19T03:30:28;59.97;;;16.13;;
8474;SDS011;4274;52.012;8.448;2023-11-19T03:32:55;63.33;;;16.07;;
8474;SDS011;4274;52.012;8.448;2023-11-19T03:35:22;61.10;;;16.00;;
8474;SDS011;4274;52.012;8.448;2023-11-19T03:37:48;69.50;;;16.50;;
8474;SDS011;4274;52.012;8.448;2023-11-19T03:40:14;63.97;;;16.37;;
8474;SDS011;4274;52.012;8.448;2023-11-19T03:42:39;62.37;;;17.93;;
8474;SDS011;4274;52.012;8.448;2023-11-19T03:45:06;65.63;;;17.00;;
8474;SDS011;4274;52.012;8.448;2023-11-19T03:47:35;62.40;;;16.50;;
8474;SDS011;4274;52.012;8.448;2023-11-19T03:50:00;63.60;;;17.37;;
8474;SDS011;4274;52.012;8.448;2023-11-19T03:52:27;63.20;;;17.87;;
8474;SDS011;4274;52.012;8.448;2023-11-19T03:54:54;64.80;;;18.40;;
8474;SDS011;4274;52.012;8.448;2023-11-19T03:57:20;59.93;;;17.47;;
8474;SDS011;4274;52.012;8.448;2023-11-19T03:59:46;67.63;;;18.23;;
8474;SDS011;4274;52.012;8.448;2023-11-19T04:02:12;65.20;;;18.23;;
8474;SDS011;4274;52.012;8.448;2023-11-19T04:04:38;67.50;;;15.80;;
8474;SDS011;4274;52.012;8.448;2023-11-19T04:07:04;62.67;;;16.53;;
8474;SDS011;4274;52.012;8.448;2023-11-19T04:09:29;61.57;;;15.90;;
8474;SDS011;4274;52.012;8.448;2023-11-19T04:11:56;66.00;;;15.60;;
8474;SDS011;4274;52.012;8.448;2023-11-19T04:14:22;64.70;;;15.20;;
8474;SDS011;4274;52.012;8.448;2023-11-19T04:16:47;55.13;;;14.13;;
8474;SDS011;4274;52.012;8.448;2023-11-19T04:19:13;66.10;;;14.30;;
8474;SDS011;4274;52.012;8.448;2023-11-19T04:21:42;58.33;;;12.03;;
8474;SDS011;4274;52.012;8.448;2023-11-19T04:24:08;63.77;;;13.50;;
8474;SDS011;4274;52.012;8.448;2023-11-19T04:26:39;57.47;;;12.60;;
8474;SDS011;4274;52.012;8.448;2023-11-19T04:29:10;66.23;;;11.60;;
8474;SDS011;4274;52.012;8.448;2023-11-19T04:31:37;76.80;;;13.30;;
8474;SDS011;4274;52.012;8.448;2023-11-19T04:34:04;57.23;;;13.17;;
8474;SDS011;4274;52.012;8.448;2023-11-19T04:36:29;56.23;;;12.07;;
8474;SDS011;4274;52.012;8.448;2023-11-19T04:38:55;57.87;;;11.80;;
8474;SDS011;4274;52.012;8.448;2023-11-19T04:41:21;62.87;;;11.73;;
8474;SDS011;4274;52.012;8.448;2023-11-19T04:43:46;58.63;;;11.37;;
8474;SDS011;4274;52.012;8.448;2023-11-19T04:46:12;59.30;;;10.40;;
8474;SDS011;4274;52.012;8.448;2023-11-19T04:48:37;49.73;;;9.50;;
8474;SDS011;4274;52.012;8.448;2023-11-19T04:51:06;56.37;;;9.33;;
8474;SDS011;4274;52.012;8.448;2023-11-19T04:53:32;52.73;;;8.30;;
8474;SDS011;4274;52.012;8.448;2023-11-19T04:55:57;72.23;;;9.90;;
8474;SDS011;4274;52.012;8.448;2023-11-19T04:58:24;61.63;;;8.30;;
8474;SDS011;4274;52.012;8.448;2023-11-19T05:00:49;64.83;;;9.10;;
8474;SDS011;4274;52.012;8.448;2023-11-19T05:03:15;63.97;;;8.13;;
8474;SDS011;4274;52.012;8.448;2023-11-19T05:05:41;54.67;;;7.67;;
8474;SDS011;4274;52.012;8.448;2023-11-19T05:08:06;54.47;;;8.10;;
8474;SDS011;4274;52.012;8.448;2023-11-19T05:10:32;52.60;;;6.90;;
8474;SDS011;4274;52.012;8.448;2023-11-19T05:12:57;54.07;;;7.40;;
8474;SDS011;4274;52.012;8.448;2023-11-19T05:15:23;57.00;;;6.83;;
8474;SDS011;4274;52.012;8.448;2023-11-19T05:17:49;58.03;;;6.23;;
8474;SDS011;4274;52.012;8.448;2023-11-19T05:20:14;64.53;;;7.17;;
8474;SDS011;4274;52.012;8.448;2023-11-19T05:22:40;45.87;;;6.00;;
8474;SDS011;4274;52.012;8.448;2023-11-19T05:25:06;54.50;;;6.33;;
8474;SDS011;4274;52.012;8.448;2023-11-19T05:27:32;61.83;;;6.67;;
8474;SDS011;4274;52.012;8.448;2023-11-19T05:29:57;64.30;;;5.70;;
8474;SDS011;4274;52.012;8.448;2023-11-19T05:32:23;54.87;;;6.03;;
8474;SDS011;4274;52.012;8.448;2023-11-19T05:34:48;61.97;;;5.40;;
8474;SDS011;4274;52.012;8.448;2023-11-19T05:37:14;55.87;;;6.97;;
8474;SDS011;4274;52.012;8.448;2023-11-19T05:39:39;53.10;;;5.20;;
8474;SDS011;4274;52.012;8.448;2023-11-19T05:42:05;55.27;;;4.97;;
8474;SDS011;4274;52.012;8.448;2023-11-19T05:44:31;52.90;;;5.53;;
8474;SDS011;4274;52.012;8.448;2023-11-19T05:46:56;65.40;;;6.10;;
8474;SDS011;4274;52.012;8.448;2023-11-19T05:49:22;57.77;;;5.70;;
8474;SDS011;4274;52.012;8.448;2023-11-19T05:51:47;55.80;;;5.90;;
8474;SDS011;4274;52.012;8.448;2023-11-19T05:54:13;61.03;;;5.93;;
8474;SDS011;4274;52.012;8.448;2023-11-19T05:56:38;63.83;;;5.57;;
8474;SDS011;4274;52.012;8.448;2023-11-19T05:59:04;56.17;;;5.63;;
8474;SDS011;4274;52.012;8.448;2023-11-19T06:01:35;61.27;;;6.03;;
8474;SDS011;4274;52.012;8.448;2023-11-19T06:04:01;50.10;;;5.30;;
8474;SDS011;4274;52.012;8.448;2023-11-19T06:06:27;48.57;;;5.60;;
8474;SDS011;4274;52.012;8.448;2023-11-19T06:08:53;67.50;;;6.20;;
8474;SDS011;4274;52.012;8.448;2023-11-19T06:11:20;51.37;;;5.43;;
8474;SDS011;4274;52.012;8.448;2023-11-19T06:13:45;75.13;;;6.93;;
8474;SDS011;4274;52.012;8.448;2023-11-19T06:16:12;55.63;;;5.77;;
8474;SDS011;4274;52.012;8.448;2023-11-19T06:18:38;56.90;;;5.77;;
8474;SDS011;4274;52.012;8.448;2023-11-19T06:21:04;64.60;;;6.60;;
8474;SDS011;4274;52.012;8.448;2023-11-19T06:23:29;61.60;;;6.57;;
8474;SDS011;4274;52.012;8.448;2023-11-19T06:25:55;59.90;;;7.27;;
8474;SDS011;4274;52.012;8.448;2023-11-19T06:28:20;64.03;;;6.70;;
8474;SDS011;4274;52.012;8.448;2023-11-19T06:30:46;58.03;;;6.10;;
8474;SDS011;4274;52.012;8.448;2023-11-19T06:33:15;54.23;;;5.80;;
8474;SDS011;4274;52.012;8.448;2023-11-19T06:35:40;80.17;;;7.40;;
8474;SDS011;4274;52.012;8.448;2023-11-19T06:38:06;61.67;;;7.23;;
8474;SDS011;4274;52.012;8.448;2023-11-19T06:40:34;58.57;;;6.50;;
8474;SDS011;4274;52.012;8.448;2023-11-19T06:43:00;56.37;;;5.60;;
8474;SDS011;4274;52.012;8.448;2023-11-19T06:45:28;57.37;;;6.23;;
8474;SDS011;4274;52.012;8.448;2023-11-19T06:47:54;57.60;;;6.90;;
8474;SDS011;4274;52.012;8.448;2023-11-19T06:50:19;65.43;;;5.90;;
8474;SDS011;4274;52.012;8.448;2023-11-19T06:52:45;66.07;;;6.30;;
8474;SDS011;4274;52.012;8.448;2023-11-19T06:55:11;64.23;;;6.77;;
8474;SDS011;4274;52.012;8.448;2023-11-19T06:57:37;70.47;;;8.03;;
8474;SDS011;4274;52.012;8.448;2023-11-19T07:00:02;56.30;;;6.20;;
8474;SDS011;4274;52.012;8.448;2023-11-19T07:02:30;60.07;;;5.80;;
8474;SDS011;4274;52.012;8.448;2023-11-19T07:04:56;76.93;;;6.83;;
8474;SDS011;4274;52.012;8.448;2023-11-19T07:07:22;63.90;;;6.37;;
8474;SDS011;4274;52.012;8.448;2023-11-19T07:09:47;65.07;;;6.87;;
8474;SDS011;4274;52.012;8.448;2023-11-19T07:12:13;65.73;;;6.50;;
8474;SDS011;4274;52.012;8.448;2023-11-19T07:14:39;60.90;;;6.10;;
8474;SDS011;4274;52.012;8.448;2023-11-19T07:17:06;70.40;;;6.30;;
8474;SDS011;4274;52.012;8.448;2023-11-19T07:19:34;68.53;;;6.10;;
8474;SDS011;4274;52.012;8.448;2023-11-19T07:22:01;65.77;;;6.70;;
8474;SDS011;4274;52.012;8.448;2023-11-19T07:24:27;62.03;;;5.53;;
8474;SDS011;4274;52.012;8.448;2023-11-19T07:26:53;57.13;;;6.73;;
8474;SDS011;4274;52.012;8.448;2023-11-19T07:29:19;77.53;;;6.53;;
8474;SDS011;4274;52.012;8.448;2023-11-19T07:31:46;60.57;;;5.70;;
8474;SDS011;4274;52.012;8.448;2023-11-19T07:34:13;64.47;;;6.10;;
8474;SDS011;4274;52.012;8.448;2023-11-19T07:36:39;53.43;;;5.03;;
8474;SDS011;4274;52.012;8.448;2023-11-19T07:39:05;68.80;;;6.40;;
8474;SDS011;4274;52.012;8.448;2023-11-19T07:41:31;68.93;;;5.87;;
8474;SDS011;4274;52.012;8.448;2023-11-19T07:43:57;77.97;;;6.13;;
8474;SDS011;4274;52.012;8.448;2023-11-19T07:46:22;65.07;;;5.93;;
8474;SDS011;4274;52.012;8.448;2023-11-19T07:48:48;62.00;;;6.70;;
8474;SDS011;4274;52.012;8.448;2023-11-19T07:51:14;59.73;;;5.03;;
8474;SDS011;4274;52.012;8.448;2023-11-19T07:53:40;61.30;;;6.63;;
8474;SDS011;4274;52.012;8.448;2023-11-19T07:56:07;65.23;;;6.23;;
8474;SDS011;4274;52.012;8.448;2023-11-19T07:58:33;50.70;;;5.67;;
8474;SDS011;4274;52.012;8.448;2023-11-19T08:00:59;61.73;;;5.47;;
8474;SDS011;4274;52.012;8.448;2023-11-19T08:03:24;61.47;;;5.30;;
8474;SDS011;4274;52.012;8.448;2023-11-19T08:05:50;82.10;;;8.60;;
8474;SDS011;4274;52.012;8.448;2023-11-19T08:08:16;73.67;;;6.93;;
8474;SDS011;4274;52.012;8.448;2023-11-19T08:10:42;75.33;;;6.10;;
8474;SDS011;4274;52.012;8.448;2023-11-19T08:13:09;60.17;;;6.43;;
8474;SDS011;4274;52.012;8.448;2023-11-19T08:15:35;52.43;;;5.03;;
8474;SDS011;4274;52.012;8.448;2023-11-19T08:18:01;65.33;;;5.83;;
8474;SDS011;4274;52.012;8.448;2023-11-19T08:20:27;63.37;;;7.43;;
8474;SDS011;4274;52.012;8.448;2023-11-19T08:22:52;69.23;;;6.10;;
8474;SDS011;4274;52.012;8.448;2023-11-19T08:25:18;68.70;;;6.00;;
8474;SDS011;4274;52.012;8.448;2023-11-19T08:27:43;65.20;;;6.30;;
8474;SDS011;4274;52.012;8.448;2023-11-19T08:30:09;61.97;;;6.17;;
8474;SDS011;4274;52.012;8.448;2023-11-19T08:32:35;59.80;;;6.03;;
8474;SDS011;4274;52.012;8.448;2023-11-19T08:35:01;67.50;;;6.00;;
8474;SDS011;4274;52.012;8.448;2023-11-19T08:37:26;67.80;;;5.03;;
8474;SDS011;4274;52.012;8.448;2023-11-19T08:39:52;71.03;;;6.47;;
8474;SDS011;4274;52.012;8.448;2023-11-19T08:42:18;72.23;;;5.70;;
8474;SDS011;4274;52.012;8.448;2023-11-19T08:44:44;66.47;;;5.30;;
8474;SDS011;4274;52.012;8.448;2023-11-19T08:47:15;60.90;;;5.27;;
8474;SDS011;4274;52.012;8.448;2023-11-19T08:49:43;65.10;;;6.03;;
8474;SDS011;4274;52.012;8.448;2023-11-19T08:52:09;72.90;;;6.60;;
8474;SDS011;4274;52.012;8.448;2023-11-19T08:54:35;69.50;;;5.43;;
8474;SDS011;4274;52.012;8.448;2023-11-19T08:57:01;52.07;;;5.97;;
8474;SDS011;4274;52.012;8.448;2023-11-19T08:59:28;61.50;;;5.63;;
8474;SDS011;4274;52.012;8.448;2023-11-19T09:01:54;66.20;;;5.40;;
8474;SDS011;4274;52.012;8.448;2023-11-19T09:04:19;59.33;;;5.00;;
8474;SDS011;4274;52.012;8.448;2023-11-19T09:06:47;61.30;;;5.73;;
8474;SDS011;4274;52.012;8.448;2023-11-19T09:09:13;75.70;;;7.10;;
8474;SDS011;4274;52.012;8.448;2023-11-19T09:11:39;56.33;;;5.43;;
8474;SDS011;4274;52.012;8.448;2023-11-19T09:14:04;68.27;;;5.50;;
8474;SDS011;4274;52.012;8.448;2023-11-19T09:16:31;70.73;;;7.20;;
8474;SDS011;4274;52.012;8.448;2023-11-19T09:18:57;70.60;;;7.50;;
8474;SDS011;4274;52.012;8.448;2023-11-19T09:21:24;64.90;;;6.60;;
8474;SDS011;4274;52.012;8.448;2023-11-19T09:23:50;67.73;;;7.40;;
8474;SDS011;4274;52.012;8.448;2023-11-19T09:26:16;61.83;;;6.17;;
8474;SDS011;4274;52.012;8.448;2023-11-19T09:28:41;73.87;;;7.90;;
8474;SDS011;4274;52.012;8.448;2023-11-19T09:31:13;77.67;;;7.43;;
8474;SDS011;4274;52.012;8.448;2023-11-19T09:33:39;76.80;;;7.30;;
8474;SDS011;4274;52.012;8.448;2023-11-19T09:36:05;61.67;;;7.47;;
8474;SDS011;4274;52.012;8.448;2023-11-19T09:38:31;65.23;;;6.43;;
8474;SDS011;4274;52.012;8.448;2023-11-19T09:40:58;63.17;;;7.40;;
8474;SDS011;4274;52.012;8.448;2023-11-19T09:43:24;68.33;;;6.70;;
8474;SDS011;4274;52.012;8.448;2023-11-19T09:45:53;61.30;;;6.60;;
8474;SDS011;4274;52.012;8.448;2023-11-19T09:48:19;66.33;;;7.90;;
8474;SDS011;4274;52.012;8.448;2023-11-19T09:50:46;74.30;;;7.30;;
8474;SDS011;4274;52.012;8.448;2023-11-19T09:53:12;74.07;;;7.13;;
8474;SDS011;4274;52.012;8.448;2023-11-19T09:55:39;65.13;;;6.43;;
8474;SDS011;4274;52.012;8.448;2023-11-19T09:58:05;61.10;;;6.47;;
8474;SDS011;4274;52.012;8.448;2023-11-19T10:00:32;77.63;;;6.63;;
8474;SDS011;4274;52.012;8.448;2023-11-19T10:02:58;83.57;;;6.50;;
8474;SDS011;4274;52.012;8.448;2023-11-19T10:05:24;63.90;;;5.80;;
8474;SDS011;4274;52.012;8.448;2023-11-19T10:07:51;64.97;;;6.97;;
8474;SDS011;4274;52.012;8.448;2023-11-19T10:10:20;70.67;;;6.60;;
8474;SDS011;4274;52.012;8.448;2023-11-19T10:12:46;61.77;;;5.67;;
8474;SDS011;4274;52.012;8.448;2023-11-19T10:15:17;59.60;;;6.43;;
8474;SDS011;4274;52.012;8.448;2023-11-19T10:17:47;69.50;;;6.43;;
8474;SDS011;4274;52.012;8.448;2023-11-19T10:20:13;54.30;;;5.43;;
8474;SDS011;4274;52.012;8.448;2023-11-19T10:22:39;73.17;;;5.87;;
8474;SDS011;4274;52.012;8.448;2023-11-19T10:25:05;61.73;;;5.67;;
8474;SDS011;4274;52.012;8.448;2023-11-19T10:27:46;64.63;;;6.03;;
8474;SDS011;4274;52.012;8.448;2023-11-19T10:30:13;58.27;;;5.20;;
8474;SDS011;4274;52.012;8.448;2023-11-19T10:32:42;66.60;;;6.40;;
8474;SDS011;4274;52.012;8.448;2023-11-19T10:35:07;59.00;;;5.50;;
8474;SDS011;4274;52.012;8.448;2023-11-19T10:37:33;66.00;;;5.50;;
8474;SDS011;4274;52.012;8.448;2023-11-19T10:40:02;65.20;;;4.93;;
8474;SDS011;4274;52.012;8.448;2023-11-19T10:42:30;67.10;;;5.13;;
8474;SDS011;4274;52.012;8.448;2023-11-19T10:44:55;70.97;;;6.10;;
8474;SDS011;4274;52.012;8.448;2023-11-19T10:47:22;77.37;;;6.13;;
8474;SDS011;4274;52.012;8.448;2023-11-19T10:49:48;66.10;;;5.77;;
8474;SDS011;4274;52.012;8.448;2023-11-19T10:52:17;67.80;;;6.30;;
8474;SDS011;4274;52.012;8.448;2023-11-19T10:54:49;58.73;;;5.80;;
8474;SDS011;4274;52.012;8.448;2023-11-19T10:57:19;73.83;;;6.30;;
8474;SDS011;4274;52.012;8.448;2023-11-19T10:59:49;60.47;;;5.87;;
8474;SDS011;4274;52.012;8.448;2023-11-19T11:02:21;63.07;;;5.27;;
8474;SDS011;4274;52.012;8.448;2023-11-19T11:04:51;65.37;;;6.10;;
8474;SDS011;4274;52.012;8.448;2023-11-19T11:07:17;63.07;;;5.93;;
8474;SDS011;4274;52.012;8.448;2023-11-19T11:09:47;68.43;;;6.70;;
8474;SDS011;4274;52.012;8.448;2023-11-19T11:12:14;62.90;;;6.33;;
8474;SDS011;4274;52.012;8.448;2023-11-19T11:14:42;66.93;;;9.17;;
8474;SDS011;4274;52.012;8.448;2023-11-19T11:17:11;74.83;;;5.87;;
8474;SDS011;4274;52.012;8.448;2023-11-19T11:19:42;66.03;;;4.70;;
8474;SDS011;4274;52.012;8.448;2023-11-19T11:22:08;62.43;;;5.50;;
8474;SDS011;4274;52.012;8.448;2023-11-19T11:27:30;74.43;;;7.40;;
8474;SDS011;4274;52.012;8.448;2023-11-19T11:33:05;65.97;;;5.90;;
8474;SDS011;4274;52.012;8.448;2023-11-19T11:38:39;63.23;;;5.57;;
8474;SDS011;4274;52.012;8.448;2023-11-19T11:49:00;57.97;;;4.73;;
8474;SDS011;4274;52.012;8.448;2023-11-19T11:57:03;61.40;;;5.50;;
8474;SDS011;4274;52.012;8.448;2023-11-19T12:02:09;60.13;;;6.77;;
8474;SDS011;4274;52.012;8.448;2023-11-19T12:04:42;56.83;;;7.50;;
8474;SDS011;4274;52.012;8.448;2023-11-19T12:07:08;92.10;;;8.43;;
8474;SDS011;4274;52.012;8.448;2023-11-19T12:09:41;78.23;;;7.80;;
8474;SDS011;4274;52.012;8.448;2023-11-19T12:12:17;66.57;;;6.03;;
8474;SDS011;4274;52.012;8.448;2023-11-19T12:17:36;67.30;;;6.93;;
8474;SDS011;4274;52.012;8.448;2023-11-19T12:20:06;61.03;;;5.50;;
8474;SDS011;4274;52.012;8.448;2023-11-19T12:22:39;67.57;;;5.57;;
8474;SDS011;4274;52.012;8.448;2023-11-19T12:25:10;55.50;;;5.40;;
8474;SDS011;4274;52.012;8.448;2023-11-19T12:27:42;67.20;;;6.03;;
8474;SDS011;4274;52.012;8.448;2023-11-19T12:30:09;64.10;;;6.00;;
8474;SDS011;4274;52.012;8.448;2023-11-19T12:32:41;71.57;;;6.30;;
8474;SDS011;4274;52.012;8.448;2023-11-19T12:35:08;64.97;;;5.67;;
8474;SDS011;4274;52.012;8.448;2023-11-19T12:37:44;66.77;;;7.43;;
8474;SDS011;4274;52.012;8.448;2023-11-19T12:40:20;71.00;;;6.17;;
8474;SDS011;4274;52.012;8.448;2023-11-19T12:42:46;59.23;;;5.10;;
8474;SDS011;4274;52.012;8.448;2023-11-19T12:45:16;62.27;;;6.03;;
8474;SDS011;4274;52.012;8.448;2023-11-19T12:47:42;66.77;;;5.43;;
8474;SDS011;4274;52.012;8.448;2023-11-19T12:50:09;67.27;;;5.93;;
8474;SDS011;4274;52.012;8.448;2023-11-19T12:52:38;65.00;;;5.77;;
8474;SDS011;4274;52.012;8.448;2023-11-19T12:55:04;57.07;;;4.60;;
8474;SDS011;4274;52.012;8.448;2023-11-19T12:57:48;58.93;;;5.83;;
8474;SDS011;4274;52.012;8.448;2023-11-19T13:00:20;68.43;;;6.00;;
8474;SDS011;4274;52.012;8.448;2023-11-19T13:02:51;70.70;;;6.50;;
8474;SDS011;4274;52.012;8.448;2023-11-19T13:07:59;75.10;;;6.37;;
8474;SDS011;4274;52.012;8.448;2023-11-19T13:10:32;66.40;;;5.57;;
8474;SDS011;4274;52.012;8.448;2023-11-19T13:13:00;59.03;;;5.20;;
8474;SDS011;4274;52.012;8.448;2023-11-19T13:15:26;62.60;;;5.57;;
8474;SDS011;4274;52.012;8.448;2023-11-19T13:17:52;65.60;;;5.33;;
8474;SDS011;4274;52.012;8.448;2023-11-19T13:20:18;69.27;;;5.33;;
8474;SDS011;4274;52.012;8.448;2023-11-19T13:22:53;66.03;;;5.90;;
8474;SDS011;4274;52.012;8.448;2023-11-19T13:25:23;52.80;;;5.27;;
8474;SDS011;4274;52.012;8.448;2023-11-19T13:27:48;68.60;;;5.27;;
8474;SDS011;4274;52.012;8.448;2023-11-19T13:30:14;56.83;;;4.70;;
8474;SDS011;4274;52.012;8.448;2023-11-19T13:32:40;62.40;;;5.55;;
8474;SDS011;4274;52.012;8.448;2023-11-19T13:35:06;58.53;;;5.60;;
8474;SDS011;4274;52.012;8.448;2023-11-19T13:37:33;62.63;;;5.60;;
8474;SDS011;4274;52.012;8.448;2023-11-19T13:39:59;68.97;;;5.83;;
8474;SDS011;4274;52.012;8.448;2023-11-19T13:42:25;61.70;;;5.30;;
8474;SDS011;4274;52.012;8.448;2023-11-19T13:44:50;58.37;;;5.00;;
8474;SDS011;4274;52.012;8.448;2023-11-19T13:47:16;57.97;;;4.40;;
8474;SDS011;4274;52.012;8.448;2023-11-19T13:49:43;63.77;;;6.07;;
8474;SDS011;4274;52.012;8.448;2023-11-19T13:52:09;64.53;;;5.67;;
8474;SDS011;4274;52.012;8.448;2023-11-19T13:54:36;62.17;;;5.10;;
8474;SDS011;4274;52.012;8.448;2023-11-19T13:57:02;66.93;;;5.00;;
8474;SDS011;4274;52.012;8.448;2023-11-19T13:59:29;60.10;;;5.70;;
8474;SDS011;4274;52.012;8.448;2023-11-19T14:01:56;61.60;;;6.30;;
8474;SDS011;4274;52.012;8.448;2023-11-19T14:04:22;60.33;;;5.60;;
8474;SDS011;4274;52.012;8.448;2023-11-19T14:06:47;58.50;;;5.67;;
8474;SDS011;4274;52.012;8.448;2023-11-19T14:09:13;72.33;;;5.87;;
8474;SDS011;4274;52.012;8.448;2023-11-19T14:11:38;50.87;;;4.80;;
8474;SDS011;4274;52.012;8.448;2023-11-19T14:14:04;65.37;;;6.10;;
8474;SDS011;4274;52.012;8.448;2023-11-19T14:16:29;65.43;;;7.40;;
8474;SDS011;4274;52.012;8.448;2023-11-19T14:18:56;62.30;;;6.00;;
8474;SDS011;4274;52.012;8.448;2023-11-19T14:21:21;58.53;;;4.40;;
8474;SDS011;4274;52.012;8.448;2023-11-19T14:23:47;61.13;;;5.40;;
8474;SDS011;4274;52.012;8.448;2023-11-19T14:26:13;52.33;;;4.80;;
8474;SDS011;4274;52.012;8.448;2023-11-19T14:28:38;58.17;;;5.57;;
8474;SDS011;4274;52.012;8.448;2023-11-19T14:31:04;56.40;;;6.10;;
8474;SDS011;4274;52.012;8.448;2023-11-19T14:33:30;65.60;;;5.10;;
8474;SDS011;4274;52.012;8.448;2023-11-19T14:35:55;52.10;;;4.53;;
8474;SDS011;4274;52.012;8.448;2023-11-19T14:38:21;65.63;;;5.50;;
8474;SDS011;4274;52.012;8.448;2023-11-19T14:40:46;70.57;;;5.53;;
8474;SDS011;4274;52.012;8.448;2023-11-19T14:43:13;65.50;;;4.67;;
8474;SDS011;4274;52.012;8.448;2023-11-19T14:45:40;61.53;;;4.10;;
8474;SDS011;4274;52.012;8.448;2023-11-19T14:48:06;56.50;;;5.03;;
8474;SDS011;4274;52.012;8.448;2023-11-19T14:50:31;57.83;;;5.00;;
8474;SDS011;4274;52.012;8.448;2023-11-19T14:52:57;53.03;;;4.40;;
8474;SDS011;4274;52.012;8.448;2023-11-19T14:55:23;48.73;;;4.13;;
8474;SDS011;4274;52.012;8.448;2023-11-19T14:57:48;57.03;;;4.60;;
8474;SDS011;4274;52.012;8.448;2023-11-19T15:00:15;50.10;;;4.17;;
8474;SDS011;4274;52.012;8.448;2023-11-19T15:02:41;64.33;;;4.90;;
8474;SDS011;4274;52.012;8.448;2023-11-19T15:05:09;54.90;;;4.77;;
8474;SDS011;4274;52.012;8.448;2023-11-19T15:07:35;54.23;;;4.33;;
8474;SDS011;4274;52.012;8.448;2023-11-19T15:10:01;54.57;;;3.80;;
8474;SDS011;4274;52.012;8.448;2023-11-19T15:12:27;52.93;;;3.70;;
8474;SDS011;4274;52.012;8.448;2023-11-19T15:14:53;53.90;;;4.30;;
8474;SDS011;4274;52.012;8.448;2023-11-19T15:17:20;59.60;;;4.50;;
8474;SDS011;4274;52.012;8.448;2023-11-19T15:19:46;49.90;;;4.30;;
8474;SDS011;4274;52.012;8.448;2023-11-19T15:22:13;58.10;;;5.03;;
8474;SDS011;4274;52.012;8.448;2023-11-19T15:24:38;58.43;;;4.30;;
8474;SDS011;4274;52.012;8.448;2023-11-19T15:27:06;59.53;;;4.80;;
8474;SDS011;4274;52.012;8.448;2023-11-19T15:29:34;54.70;;;5.33;;
8474;SDS011;4274;52.012;8.448;2023-11-19T15:31:59;52.93;;;5.60;;